Schedule Details


Flight Number: CTN441
Departure: Schwechat (LOWW) at 10:10
Arrival: Franjo Tudman (LDZA) at 11:05
Route: SASAL?DCT?SUNIS?DCT?PETOV

Weather Information
LOWW 072320Z 18005KT CAVOK 18/16 Q1020 NOSIG
LDZA 072330Z 23003KT CAVOK 19/18 Q1018 NOSIG
Schedule Frequency

Route Map